sensor_id;sensor_type;location;lat;lon;timestamp;P1;durP1;ratioP1;P2;durP2;ratioP2
51602;SDS011;37954;51.980;5.850;2022-12-18T00:00:56;49.33;;;25.00;;
51602;SDS011;37954;51.980;5.850;2022-12-18T00:05:07;39.27;;;24.07;;
51602;SDS011;37954;51.980;5.850;2022-12-18T00:09:19;46.93;;;24.63;;
51602;SDS011;37954;51.980;5.850;2022-12-18T00:13:34;46.97;;;24.07;;
51602;SDS011;37954;51.980;5.850;2022-12-18T00:17:47;41.57;;;22.87;;
51602;SDS011;37954;51.980;5.850;2022-12-18T00:21:58;37.43;;;22.73;;
51602;SDS011;37954;51.980;5.850;2022-12-18T00:26:11;36.03;;;22.53;;
51602;SDS011;37954;51.980;5.850;2022-12-18T00:30:28;39.93;;;21.53;;
51602;SDS011;37954;51.980;5.850;2022-12-18T00:34:40;42.33;;;22.27;;
51602;SDS011;37954;51.980;5.850;2022-12-18T00:38:53;36.73;;;21.87;;
51602;SDS011;37954;51.980;5.850;2022-12-18T00:43:05;40.33;;;22.67;;
51602;SDS011;37954;51.980;5.850;2022-12-18T00:47:21;35.70;;;21.67;;
51602;SDS011;37954;51.980;5.850;2022-12-18T00:51:33;35.37;;;21.47;;
51602;SDS011;37954;51.980;5.850;2022-12-18T00:55:45;37.67;;;20.77;;
51602;SDS011;37954;51.980;5.850;2022-12-18T00:59:57;34.53;;;21.20;;
51602;SDS011;37954;51.980;5.850;2022-12-18T01:04:08;34.03;;;20.70;;
51602;SDS011;37954;51.980;5.850;2022-12-18T01:08:21;30.77;;;20.07;;
51602;SDS011;37954;51.980;5.850;2022-12-18T01:12:33;33.53;;;21.10;;
51602;SDS011;37954;51.980;5.850;2022-12-18T01:16:45;33.63;;;20.07;;
51602;SDS011;37954;51.980;5.850;2022-12-18T01:20:56;33.53;;;19.77;;
51602;SDS011;37954;51.980;5.850;2022-12-18T01:25:08;34.93;;;21.00;;
51602;SDS011;37954;51.980;5.850;2022-12-18T01:29:20;30.57;;;19.03;;
51602;SDS011;37954;51.980;5.850;2022-12-18T01:33:32;32.03;;;18.67;;
51602;SDS011;37954;51.980;5.850;2022-12-18T01:37:43;34.27;;;20.23;;
51602;SDS011;37954;51.980;5.850;2022-12-18T01:41:55;30.90;;;18.93;;
51602;SDS011;37954;51.980;5.850;2022-12-18T01:46:16;30.70;;;19.70;;
51602;SDS011;37954;51.980;5.850;2022-12-18T01:50:36;31.87;;;17.93;;
51602;SDS011;37954;51.980;5.850;2022-12-18T01:54:51;28.10;;;18.10;;
51602;SDS011;37954;51.980;5.850;2022-12-18T01:59:04;28.03;;;17.47;;
51602;SDS011;37954;51.980;5.850;2022-12-18T02:03:20;30.07;;;17.60;;
51602;SDS011;37954;51.980;5.850;2022-12-18T02:12:42;29.03;;;16.93;;
51602;SDS011;37954;51.980;5.850;2022-12-18T02:21:47;28.60;;;17.83;;
51602;SDS011;37954;51.980;5.850;2022-12-18T02:30:46;24.60;;;16.53;;
51602;SDS011;37954;51.980;5.850;2022-12-18T02:35:00;29.60;;;17.37;;
51602;SDS011;37954;51.980;5.850;2022-12-18T02:39:16;27.40;;;16.83;;
51602;SDS011;37954;51.980;5.850;2022-12-18T02:43:46;31.07;;;16.57;;
51602;SDS011;37954;51.980;5.850;2022-12-18T02:48:01;25.13;;;15.80;;
51602;SDS011;37954;51.980;5.850;2022-12-18T02:52:18;29.07;;;16.57;;
51602;SDS011;37954;51.980;5.850;2022-12-18T02:56:38;26.53;;;15.40;;
51602;SDS011;37954;51.980;5.850;2022-12-18T03:01:07;23.80;;;15.00;;
51602;SDS011;37954;51.980;5.850;2022-12-18T03:05:24;23.47;;;14.97;;
51602;SDS011;37954;51.980;5.850;2022-12-18T03:09:51;26.20;;;15.37;;
51602;SDS011;37954;51.980;5.850;2022-12-18T03:14:05;22.57;;;14.87;;
51602;SDS011;37954;51.980;5.850;2022-12-18T03:18:20;24.63;;;14.33;;
51602;SDS011;37954;51.980;5.850;2022-12-18T03:22:36;25.03;;;15.20;;
51602;SDS011;37954;51.980;5.850;2022-12-18T03:26:51;20.43;;;14.73;;
51602;SDS011;37954;51.980;5.850;2022-12-18T03:31:05;24.93;;;16.30;;
51602;SDS011;37954;51.980;5.850;2022-12-18T03:35:22;21.20;;;13.70;;
51602;SDS011;37954;51.980;5.850;2022-12-18T03:39:37;24.80;;;15.27;;
51602;SDS011;37954;51.980;5.850;2022-12-18T03:44:09;21.97;;;14.33;;
51602;SDS011;37954;51.980;5.850;2022-12-18T03:48:32;23.20;;;14.00;;
51602;SDS011;37954;51.980;5.850;2022-12-18T03:52:56;20.47;;;14.33;;
51602;SDS011;37954;51.980;5.850;2022-12-18T03:57:19;25.43;;;14.33;;
51602;SDS011;37954;51.980;5.850;2022-12-18T04:01:36;22.37;;;13.83;;
51602;SDS011;37954;51.980;5.850;2022-12-18T04:05:52;20.07;;;13.30;;
51602;SDS011;37954;51.980;5.850;2022-12-18T04:10:07;18.87;;;13.60;;
51602;SDS011;37954;51.980;5.850;2022-12-18T04:14:24;17.63;;;12.77;;
51602;SDS011;37954;51.980;5.850;2022-12-18T04:18:39;18.17;;;12.00;;
51602;SDS011;37954;51.980;5.850;2022-12-18T04:22:52;16.60;;;11.23;;
51602;SDS011;37954;51.980;5.850;2022-12-18T04:27:04;18.03;;;12.17;;
51602;SDS011;37954;51.980;5.850;2022-12-18T04:31:23;19.83;;;12.83;;
51602;SDS011;37954;51.980;5.850;2022-12-18T04:35:35;19.37;;;12.53;;
51602;SDS011;37954;51.980;5.850;2022-12-18T04:39:46;17.00;;;11.67;;
51602;SDS011;37954;51.980;5.850;2022-12-18T04:44:05;20.57;;;13.20;;
51602;SDS011;37954;51.980;5.850;2022-12-18T04:48:17;17.10;;;11.30;;
51602;SDS011;37954;51.980;5.850;2022-12-18T04:52:28;19.37;;;11.50;;
51602;SDS011;37954;51.980;5.850;2022-12-18T04:56:43;19.80;;;11.60;;
51602;SDS011;37954;51.980;5.850;2022-12-18T05:00:54;16.00;;;11.20;;
51602;SDS011;37954;51.980;5.850;2022-12-18T05:05:06;15.60;;;10.63;;
51602;SDS011;37954;51.980;5.850;2022-12-18T05:09:18;16.67;;;11.23;;
51602;SDS011;37954;51.980;5.850;2022-12-18T05:13:30;16.00;;;10.23;;
51602;SDS011;37954;51.980;5.850;2022-12-18T05:17:42;15.77;;;10.63;;
51602;SDS011;37954;51.980;5.850;2022-12-18T05:21:54;17.97;;;10.30;;
51602;SDS011;37954;51.980;5.850;2022-12-18T05:26:06;14.13;;;10.27;;
51602;SDS011;37954;51.980;5.850;2022-12-18T05:30:19;15.87;;;10.93;;
51602;SDS011;37954;51.980;5.850;2022-12-18T05:34:30;18.97;;;10.30;;
51602;SDS011;37954;51.980;5.850;2022-12-18T05:38:42;16.73;;;10.77;;
51602;SDS011;37954;51.980;5.850;2022-12-18T05:42:53;19.27;;;10.93;;
51602;SDS011;37954;51.980;5.850;2022-12-18T05:47:05;15.10;;;9.83;;
51602;SDS011;37954;51.980;5.850;2022-12-18T05:51:18;17.30;;;9.70;;
51602;SDS011;37954;51.980;5.850;2022-12-18T05:55:35;12.93;;;9.17;;
51602;SDS011;37954;51.980;5.850;2022-12-18T05:59:47;16.30;;;10.70;;
51602;SDS011;37954;51.980;5.850;2022-12-18T06:03:59;13.93;;;8.93;;
51602;SDS011;37954;51.980;5.850;2022-12-18T06:08:11;16.07;;;10.63;;
51602;SDS011;37954;51.980;5.850;2022-12-18T06:12:24;15.50;;;10.67;;
51602;SDS011;37954;51.980;5.850;2022-12-18T06:16:35;16.00;;;10.73;;
51602;SDS011;37954;51.980;5.850;2022-12-18T06:20:54;13.97;;;10.23;;
51602;SDS011;37954;51.980;5.850;2022-12-18T06:25:10;19.27;;;10.43;;
51602;SDS011;37954;51.980;5.850;2022-12-18T06:29:22;18.23;;;10.70;;
51602;SDS011;37954;51.980;5.850;2022-12-18T06:33:33;17.50;;;11.17;;
51602;SDS011;37954;51.980;5.850;2022-12-18T06:37:45;17.47;;;10.83;;
51602;SDS011;37954;51.980;5.850;2022-12-18T06:41:57;13.60;;;9.77;;
51602;SDS011;37954;51.980;5.850;2022-12-18T06:46:27;16.37;;;10.47;;
51602;SDS011;37954;51.980;5.850;2022-12-18T06:50:41;16.23;;;10.40;;
51602;SDS011;37954;51.980;5.850;2022-12-18T06:54:53;14.87;;;9.83;;
51602;SDS011;37954;51.980;5.850;2022-12-18T06:59:05;14.17;;;10.33;;
51602;SDS011;37954;51.980;5.850;2022-12-18T07:03:16;15.67;;;10.33;;
51602;SDS011;37954;51.980;5.850;2022-12-18T07:07:28;14.87;;;10.67;;
51602;SDS011;37954;51.980;5.850;2022-12-18T07:11:39;13.57;;;10.70;;
51602;SDS011;37954;51.980;5.850;2022-12-18T07:15:51;14.97;;;10.57;;
51602;SDS011;37954;51.980;5.850;2022-12-18T07:20:03;14.83;;;10.80;;
51602;SDS011;37954;51.980;5.850;2022-12-18T07:24:15;16.63;;;11.07;;
51602;SDS011;37954;51.980;5.850;2022-12-18T07:28:26;13.73;;;10.57;;
51602;SDS011;37954;51.980;5.850;2022-12-18T07:32:38;11.87;;;9.07;;
51602;SDS011;37954;51.980;5.850;2022-12-18T07:36:49;14.90;;;9.87;;
51602;SDS011;37954;51.980;5.850;2022-12-18T07:41:01;13.97;;;9.57;;
51602;SDS011;37954;51.980;5.850;2022-12-18T07:45:16;17.13;;;9.90;;
51602;SDS011;37954;51.980;5.850;2022-12-18T07:49:28;14.93;;;9.80;;
51602;SDS011;37954;51.980;5.850;2022-12-18T07:53:40;12.60;;;8.70;;
51602;SDS011;37954;51.980;5.850;2022-12-18T07:57:52;15.30;;;9.60;;
51602;SDS011;37954;51.980;5.850;2022-12-18T08:02:11;12.57;;;8.20;;
51602;SDS011;37954;51.980;5.850;2022-12-18T08:06:22;14.13;;;8.87;;
51602;SDS011;37954;51.980;5.850;2022-12-18T08:10:35;14.23;;;8.93;;
51602;SDS011;37954;51.980;5.850;2022-12-18T08:14:46;12.27;;;9.30;;
51602;SDS011;37954;51.980;5.850;2022-12-18T08:18:58;12.83;;;8.57;;
51602;SDS011;37954;51.980;5.850;2022-12-18T08:23:09;12.97;;;9.40;;
51602;SDS011;37954;51.980;5.850;2022-12-18T08:27:21;14.60;;;8.57;;
51602;SDS011;37954;51.980;5.850;2022-12-18T08:31:40;10.97;;;7.77;;
51602;SDS011;37954;51.980;5.850;2022-12-18T08:35:52;11.23;;;8.13;;
51602;SDS011;37954;51.980;5.850;2022-12-18T08:40:04;12.40;;;7.93;;
51602;SDS011;37954;51.980;5.850;2022-12-18T08:44:16;10.50;;;7.57;;
51602;SDS011;37954;51.980;5.850;2022-12-18T08:48:46;9.93;;;7.63;;
51602;SDS011;37954;51.980;5.850;2022-12-18T08:52:59;10.10;;;7.63;;
51602;SDS011;37954;51.980;5.850;2022-12-18T08:57:11;9.37;;;7.00;;
51602;SDS011;37954;51.980;5.850;2022-12-18T09:01:23;13.00;;;7.90;;
51602;SDS011;37954;51.980;5.850;2022-12-18T09:05:35;11.73;;;7.30;;
51602;SDS011;37954;51.980;5.850;2022-12-18T09:09:47;11.73;;;7.60;;
51602;SDS011;37954;51.980;5.850;2022-12-18T09:13:59;10.10;;;7.00;;
51602;SDS011;37954;51.980;5.850;2022-12-18T09:18:12;8.83;;;6.70;;
51602;SDS011;37954;51.980;5.850;2022-12-18T09:22:25;10.13;;;7.10;;
51602;SDS011;37954;51.980;5.850;2022-12-18T09:26:36;11.13;;;7.30;;
51602;SDS011;37954;51.980;5.850;2022-12-18T09:30:49;9.87;;;6.77;;
51602;SDS011;37954;51.980;5.850;2022-12-18T09:35:01;8.07;;;6.43;;
51602;SDS011;37954;51.980;5.850;2022-12-18T09:39:13;8.80;;;5.83;;
51602;SDS011;37954;51.980;5.850;2022-12-18T09:47:52;10.30;;;6.33;;
51602;SDS011;37954;51.980;5.850;2022-12-18T09:56:40;8.47;;;6.10;;
51602;SDS011;37954;51.980;5.850;2022-12-18T10:00:54;10.00;;;6.07;;
51602;SDS011;37954;51.980;5.850;2022-12-18T10:05:09;10.30;;;6.50;;
51602;SDS011;37954;51.980;5.850;2022-12-18T10:28:12;8.20;;;6.43;;
51602;SDS011;37954;51.980;5.850;2022-12-18T10:32:26;10.10;;;6.83;;
51602;SDS011;37954;51.980;5.850;2022-12-18T10:36:39;11.23;;;6.57;;
51602;SDS011;37954;51.980;5.850;2022-12-18T10:45:07;8.97;;;6.07;;
51602;SDS011;37954;51.980;5.850;2022-12-18T10:49:28;9.43;;;6.87;;
51602;SDS011;37954;51.980;5.850;2022-12-18T10:53:42;7.93;;;6.33;;
51602;SDS011;37954;51.980;5.850;2022-12-18T10:58:13;8.50;;;6.17;;
51602;SDS011;37954;51.980;5.850;2022-12-18T11:02:37;9.50;;;6.40;;
51602;SDS011;37954;51.980;5.850;2022-12-18T11:11:21;8.53;;;6.63;;
51602;SDS011;37954;51.980;5.850;2022-12-18T11:15:34;8.43;;;6.60;;
51602;SDS011;37954;51.980;5.850;2022-12-18T11:19:46;10.23;;;6.67;;
51602;SDS011;37954;51.980;5.850;2022-12-18T11:24:05;8.40;;;6.27;;
51602;SDS011;37954;51.980;5.850;2022-12-18T11:28:36;8.13;;;6.27;;
51602;SDS011;37954;51.980;5.850;2022-12-18T11:32:54;12.53;;;7.00;;
51602;SDS011;37954;51.980;5.850;2022-12-18T11:37:09;13.20;;;6.80;;
51602;SDS011;37954;51.980;5.850;2022-12-18T11:46:37;10.67;;;7.17;;
51602;SDS011;37954;51.980;5.850;2022-12-18T11:50:55;14.37;;;8.67;;
51602;SDS011;37954;51.980;5.850;2022-12-18T12:00:07;8.30;;;6.60;;
51602;SDS011;37954;51.980;5.850;2022-12-18T12:04:56;11.53;;;7.50;;
51602;SDS011;37954;51.980;5.850;2022-12-18T12:09:29;11.37;;;7.43;;
51602;SDS011;37954;51.980;5.850;2022-12-18T12:27:35;10.40;;;7.63;;
51602;SDS011;37954;51.980;5.850;2022-12-18T12:37:29;14.57;;;7.47;;
51602;SDS011;37954;51.980;5.850;2022-12-18T12:41:09;11.77;;;7.27;;
51602;SDS011;37954;51.980;5.850;2022-12-18T12:46:08;10.35;;;7.90;;
51602;SDS011;37954;51.980;5.850;2022-12-18T12:50:22;10.07;;;7.20;;
51602;SDS011;37954;51.980;5.850;2022-12-18T12:54:35;8.63;;;6.63;;
51602;SDS011;37954;51.980;5.850;2022-12-18T13:03:53;10.23;;;6.80;;
51602;SDS011;37954;51.980;5.850;2022-12-18T13:08:12;10.10;;;6.80;;
51602;SDS011;37954;51.980;5.850;2022-12-18T13:12:51;12.53;;;7.60;;
51602;SDS011;37954;51.980;5.850;2022-12-18T13:21:32;9.67;;;6.60;;
51602;SDS011;37954;51.980;5.850;2022-12-18T13:25:45;9.03;;;6.77;;
51602;SDS011;37954;51.980;5.850;2022-12-18T13:29:57;11.80;;;7.33;;
51602;SDS011;37954;51.980;5.850;2022-12-18T13:43:46;11.83;;;7.37;;
51602;SDS011;37954;51.980;5.850;2022-12-18T13:47:59;8.40;;;6.57;;
51602;SDS011;37954;51.980;5.850;2022-12-18T13:52:18;12.47;;;7.93;;
51602;SDS011;37954;51.980;5.850;2022-12-18T13:56:32;12.10;;;7.10;;
51602;SDS011;37954;51.980;5.850;2022-12-18T14:00:45;9.50;;;7.53;;
51602;SDS011;37954;51.980;5.850;2022-12-18T14:04:58;8.17;;;6.80;;
51602;SDS011;37954;51.980;5.850;2022-12-18T14:09:12;12.33;;;8.37;;
51602;SDS011;37954;51.980;5.850;2022-12-18T14:13:33;14.43;;;8.70;;
51602;SDS011;37954;51.980;5.850;2022-12-18T14:17:49;9.33;;;7.33;;
51602;SDS011;37954;51.980;5.850;2022-12-18T14:22:02;12.33;;;8.03;;
51602;SDS011;37954;51.980;5.850;2022-12-18T14:26:19;12.23;;;7.73;;
51602;SDS011;37954;51.980;5.850;2022-12-18T14:30:41;11.83;;;8.00;;
51602;SDS011;37954;51.980;5.850;2022-12-18T14:34:54;8.83;;;7.10;;
51602;SDS011;37954;51.980;5.850;2022-12-18T14:39:12;10.37;;;7.17;;
51602;SDS011;37954;51.980;5.850;2022-12-18T14:43:30;10.20;;;7.50;;
51602;SDS011;37954;51.980;5.850;2022-12-18T14:47:44;11.17;;;7.53;;
51602;SDS011;37954;51.980;5.850;2022-12-18T14:52:03;9.37;;;7.40;;
51602;SDS011;37954;51.980;5.850;2022-12-18T14:56:22;15.10;;;8.20;;
51602;SDS011;37954;51.980;5.850;2022-12-18T15:00:37;13.37;;;7.63;;
51602;SDS011;37954;51.980;5.850;2022-12-18T15:09:24;13.20;;;8.17;;
51602;SDS011;37954;51.980;5.850;2022-12-18T15:13:37;12.90;;;8.63;;
51602;SDS011;37954;51.980;5.850;2022-12-18T15:17:55;13.77;;;8.40;;
51602;SDS011;37954;51.980;5.850;2022-12-18T15:22:17;13.47;;;8.50;;
51602;SDS011;37954;51.980;5.850;2022-12-18T15:26:32;10.67;;;7.30;;
51602;SDS011;37954;51.980;5.850;2022-12-18T15:31:02;13.70;;;8.83;;
51602;SDS011;37954;51.980;5.850;2022-12-18T15:35:32;13.33;;;8.30;;
51602;SDS011;37954;51.980;5.850;2022-12-18T15:39:44;15.20;;;8.60;;
51602;SDS011;37954;51.980;5.850;2022-12-18T15:43:55;11.83;;;8.33;;
51602;SDS011;37954;51.980;5.850;2022-12-18T15:48:29;13.50;;;8.63;;
51602;SDS011;37954;51.980;5.850;2022-12-18T15:52:41;12.73;;;9.27;;
51602;SDS011;37954;51.980;5.850;2022-12-18T15:56:55;16.50;;;11.37;;
51602;SDS011;37954;51.980;5.850;2022-12-18T16:01:26;11.47;;;9.33;;
51602;SDS011;37954;51.980;5.850;2022-12-18T16:05:40;18.93;;;9.53;;
51602;SDS011;37954;51.980;5.850;2022-12-18T16:09:52;17.07;;;10.53;;
51602;SDS011;37954;51.980;5.850;2022-12-18T16:14:20;17.50;;;10.63;;
51602;SDS011;37954;51.980;5.850;2022-12-18T16:18:32;14.13;;;9.73;;
51602;SDS011;37954;51.980;5.850;2022-12-18T16:22:44;14.30;;;9.77;;
51602;SDS011;37954;51.980;5.850;2022-12-18T16:26:57;13.53;;;10.10;;
51602;SDS011;37954;51.980;5.850;2022-12-18T16:31:10;16.70;;;10.47;;
51602;SDS011;37954;51.980;5.850;2022-12-18T16:35:22;14.17;;;9.50;;
51602;SDS011;37954;51.980;5.850;2022-12-18T16:39:35;16.13;;;10.07;;
51602;SDS011;37954;51.980;5.850;2022-12-18T16:43:48;16.70;;;10.17;;
51602;SDS011;37954;51.980;5.850;2022-12-18T16:48:05;15.40;;;10.27;;
51602;SDS011;37954;51.980;5.850;2022-12-18T16:52:17;18.73;;;10.93;;
51602;SDS011;37954;51.980;5.850;2022-12-18T16:56:30;14.67;;;9.90;;
51602;SDS011;37954;51.980;5.850;2022-12-18T17:00:42;19.10;;;12.63;;
51602;SDS011;37954;51.980;5.850;2022-12-18T17:04:54;20.80;;;11.93;;
51602;SDS011;37954;51.980;5.850;2022-12-18T17:09:17;17.30;;;10.90;;
51602;SDS011;37954;51.980;5.850;2022-12-18T17:13:34;15.53;;;12.20;;
51602;SDS011;37954;51.980;5.850;2022-12-18T17:17:46;19.33;;;13.50;;
51602;SDS011;37954;51.980;5.850;2022-12-18T17:21:58;30.63;;;18.13;;
51602;SDS011;37954;51.980;5.850;2022-12-18T17:26:10;24.40;;;18.13;;
51602;SDS011;37954;51.980;5.850;2022-12-18T17:30:23;30.63;;;18.70;;
51602;SDS011;37954;51.980;5.850;2022-12-18T17:34:34;19.67;;;11.70;;
51602;SDS011;37954;51.980;5.850;2022-12-18T17:38:50;19.60;;;14.67;;
51602;SDS011;37954;51.980;5.850;2022-12-18T17:43:03;21.50;;;13.10;;
51602;SDS011;37954;51.980;5.850;2022-12-18T17:47:15;24.03;;;15.80;;
51602;SDS011;37954;51.980;5.850;2022-12-18T17:51:27;20.83;;;14.47;;
51602;SDS011;37954;51.980;5.850;2022-12-18T17:55:40;16.80;;;12.27;;
51602;SDS011;37954;51.980;5.850;2022-12-18T17:59:52;20.20;;;13.60;;
51602;SDS011;37954;51.980;5.850;2022-12-18T18:04:04;18.50;;;12.97;;
51602;SDS011;37954;51.980;5.850;2022-12-18T18:08:15;17.57;;;11.73;;
51602;SDS011;37954;51.980;5.850;2022-12-18T18:12:27;18.37;;;13.03;;
51602;SDS011;37954;51.980;5.850;2022-12-18T18:16:57;24.30;;;13.43;;
51602;SDS011;37954;51.980;5.850;2022-12-18T18:21:15;18.07;;;12.23;;
51602;SDS011;37954;51.980;5.850;2022-12-18T18:25:27;17.23;;;12.63;;
51602;SDS011;37954;51.980;5.850;2022-12-18T18:29:38;21.13;;;13.20;;
51602;SDS011;37954;51.980;5.850;2022-12-18T18:33:50;22.20;;;12.87;;
51602;SDS011;37954;51.980;5.850;2022-12-18T18:38:02;15.03;;;11.60;;
51602;SDS011;37954;51.980;5.850;2022-12-18T18:42:14;19.53;;;13.07;;
51602;SDS011;37954;51.980;5.850;2022-12-18T18:46:26;21.67;;;14.13;;
51602;SDS011;37954;51.980;5.850;2022-12-18T18:50:37;18.77;;;13.57;;
51602;SDS011;37954;51.980;5.850;2022-12-18T18:54:49;21.10;;;12.50;;
51602;SDS011;37954;51.980;5.850;2022-12-18T18:59:21;18.20;;;12.80;;
51602;SDS011;37954;51.980;5.850;2022-12-18T19:03:42;18.77;;;12.33;;
51602;SDS011;37954;51.980;5.850;2022-12-18T19:07:54;23.90;;;13.70;;
51602;SDS011;37954;51.980;5.850;2022-12-18T19:12:06;21.67;;;13.63;;
51602;SDS011;37954;51.980;5.850;2022-12-18T19:16:37;24.03;;;13.87;;
51602;SDS011;37954;51.980;5.850;2022-12-18T19:20:56;19.17;;;13.23;;
51602;SDS011;37954;51.980;5.850;2022-12-18T19:25:10;16.77;;;11.90;;
51602;SDS011;37954;51.980;5.850;2022-12-18T19:29:21;19.40;;;12.30;;
51602;SDS011;37954;51.980;5.850;2022-12-18T19:33:37;16.73;;;11.87;;
51602;SDS011;37954;51.980;5.850;2022-12-18T19:38:09;18.70;;;12.87;;
51602;SDS011;37954;51.980;5.850;2022-12-18T19:42:21;16.33;;;11.73;;
51602;SDS011;37954;51.980;5.850;2022-12-18T19:46:42;25.33;;;14.53;;
51602;SDS011;37954;51.980;5.850;2022-12-18T19:50:56;23.67;;;13.30;;
51602;SDS011;37954;51.980;5.850;2022-12-18T19:55:08;17.83;;;12.20;;
51602;SDS011;37954;51.980;5.850;2022-12-18T19:59:20;20.23;;;12.83;;
51602;SDS011;37954;51.980;5.850;2022-12-18T20:03:37;18.77;;;13.03;;
51602;SDS011;37954;51.980;5.850;2022-12-18T20:07:54;20.60;;;13.97;;
51602;SDS011;37954;51.980;5.850;2022-12-18T20:12:22;17.53;;;12.93;;
51602;SDS011;37954;51.980;5.850;2022-12-18T20:16:39;20.17;;;13.80;;
51602;SDS011;37954;51.980;5.850;2022-12-18T20:20:51;19.70;;;13.70;;
51602;SDS011;37954;51.980;5.850;2022-12-18T20:25:06;21.13;;;14.67;;
51602;SDS011;37954;51.980;5.850;2022-12-18T20:29:18;19.70;;;13.57;;
51602;SDS011;37954;51.980;5.850;2022-12-18T20:33:30;24.10;;;14.73;;
51602;SDS011;37954;51.980;5.850;2022-12-18T20:37:41;19.47;;;13.23;;
51602;SDS011;37954;51.980;5.850;2022-12-18T20:42:02;23.77;;;14.87;;
51602;SDS011;37954;51.980;5.850;2022-12-18T20:46:14;24.57;;;14.17;;
51602;SDS011;37954;51.980;5.850;2022-12-18T20:55:27;33.23;;;21.20;;
51602;SDS011;37954;51.980;5.850;2022-12-18T21:00:10;32.97;;;20.97;;
51602;SDS011;37954;51.980;5.850;2022-12-18T21:04:34;30.23;;;17.17;;
51602;SDS011;37954;51.980;5.850;2022-12-18T21:08:51;30.87;;;17.13;;
51602;SDS011;37954;51.980;5.850;2022-12-18T21:13:09;23.43;;;15.17;;
51602;SDS011;37954;51.980;5.850;2022-12-18T21:17:34;32.13;;;16.80;;
51602;SDS011;37954;51.980;5.850;2022-12-18T21:22:02;24.27;;;15.77;;
51602;SDS011;37954;51.980;5.850;2022-12-18T21:26:25;24.67;;;15.83;;
51602;SDS011;37954;51.980;5.850;2022-12-18T21:30:44;21.20;;;14.63;;
51602;SDS011;37954;51.980;5.850;2022-12-18T21:35:08;26.23;;;16.50;;
51602;SDS011;37954;51.980;5.850;2022-12-18T21:39:23;26.37;;;16.40;;
51602;SDS011;37954;51.980;5.850;2022-12-18T21:43:43;21.73;;;16.33;;
51602;SDS011;37954;51.980;5.850;2022-12-18T21:48:14;26.57;;;16.43;;
51602;SDS011;37954;51.980;5.850;2022-12-18T21:52:43;24.30;;;16.60;;
51602;SDS011;37954;51.980;5.850;2022-12-18T21:57:22;22.50;;;15.47;;
51602;SDS011;37954;51.980;5.850;2022-12-18T22:01:38;31.57;;;19.40;;
51602;SDS011;37954;51.980;5.850;2022-12-18T22:06:00;22.03;;;16.40;;
51602;SDS011;37954;51.980;5.850;2022-12-18T22:10:23;25.50;;;16.73;;
51602;SDS011;37954;51.980;5.850;2022-12-18T22:14:45;23.27;;;16.20;;
51602;SDS011;37954;51.980;5.850;2022-12-18T22:19:20;24.57;;;16.77;;
51602;SDS011;37954;51.980;5.850;2022-12-18T22:23:57;35.47;;;18.40;;
51602;SDS011;37954;51.980;5.850;2022-12-18T22:28:33;26.87;;;18.27;;
51602;SDS011;37954;51.980;5.850;2022-12-18T22:33:04;44.23;;;27.87;;
51602;SDS011;37954;51.980;5.850;2022-12-18T22:37:27;34.13;;;20.63;;
51602;SDS011;37954;51.980;5.850;2022-12-18T22:41:52;35.13;;;21.10;;
51602;SDS011;37954;51.980;5.850;2022-12-18T22:46:07;30.17;;;19.67;;
51602;SDS011;37954;51.980;5.850;2022-12-18T22:50:38;27.53;;;18.70;;
51602;SDS011;37954;51.980;5.850;2022-12-18T22:54:54;31.80;;;19.63;;
51602;SDS011;37954;51.980;5.850;2022-12-18T22:59:09;30.63;;;19.80;;
51602;SDS011;37954;51.980;5.850;2022-12-18T23:03:34;31.93;;;19.30;;
51602;SDS011;37954;51.980;5.850;2022-12-18T23:07:55;33.97;;;19.90;;
51602;SDS011;37954;51.980;5.850;2022-12-18T23:12:18;28.17;;;19.23;;
51602;SDS011;37954;51.980;5.850;2022-12-18T23:16:47;33.83;;;19.60;;
51602;SDS011;37954;51.980;5.850;2022-12-18T23:21:06;27.87;;;19.17;;
51602;SDS011;37954;51.980;5.850;2022-12-18T23:25:26;29.80;;;20.50;;
51602;SDS011;37954;51.980;5.850;2022-12-18T23:34:10;28.93;;;18.63;;
51602;SDS011;37954;51.980;5.850;2022-12-18T23:38:27;27.60;;;19.57;;
51602;SDS011;37954;51.980;5.850;2022-12-18T23:42:50;28.03;;;18.97;;
51602;SDS011;37954;51.980;5.850;2022-12-18T23:47:37;30.70;;;20.63;;
51602;SDS011;37954;51.980;5.850;2022-12-18T23:51:52;32.10;;;20.77;;
51602;SDS011;37954;51.980;5.850;2022-12-18T23:56:06;36.00;;;21.03;;
